Lewis Center, OH (43035)

9:51 PM EDT on September 02, 2014 (GMT -0400)
Estates of Glen Oak | Change Station
CLOSE
Current Station
Personal Weather Station
Location: Lewis Center, OH
Elevation: 951 ft
Nearby Weather Stations

Elev 951 ft 40.18 °N, 83.00 °W | Updated 8 minutes ago

Clear
Clear
67.3 °F
Feels Like 67.3 °F
N
0.0
Wind Variable Wind from West

Today
High -- | Low -- °F
--% Chance of Precip.
Yesterday
High -- | Low -- °F
Precip. -- in
7:00 AM 8:02 PM
First Quarter, 57% visible
Pressure 29.94 in
Visibility 10.0 miles
Clouds Scattered Clouds 2500 ft
Dew Point 67 °F
Humidity 99%
Rainfall 0.23 in
Snow Depth Not available.
UV 0 out of 12
Pollen 4.90 out of 12
Ozone Good
PM2.5 Good
Flu Activity Not available.
METAR KOSU 030053Z 25003KT 10SM SCT025 21/19 A2996 RMK AO2 SLP138 T02060189

More Conditions Fewer Conditions

Pressure 29.94 in
Visibility 10.0 miles
Clouds Scattered Clouds 2500 ft
Dew Point 67 °F
Humidity 99%
Rainfall 0.23 in
Snow Depth Not available.
UV 0 out of 12
Pollen 4.90 out of 12
Ozone Good
PM2.5 Good
Flu Activity Not available.
METAR KOSU 030053Z 25003KT 10SM SCT025 21/19 A2996 RMK AO2 SLP138 T02060189

More Conditions Fewer Conditions

10-Day Weather Forecast

Almanac

Astronomy

Sep. 02, 2014 Rise Set
Actual Time 7:00 AM EDT 8:02 PM EDT
Civil Twilight 6:32 AM EDT 8:29 PM EDT
Nautical Twilight 5:59 AM EDT 9:02 PM EDT
Astronomical Twilight 5:25 AM EDT 9:37 PM EDT
Moon 2:44 PM EDT (9/2) 12:03 AM EDT (9/2)
Length of Visible Light 13h 57m
Length of Day
13h 01m
Tomorrow will be 2m 33s shorter.
First Quarter, 57% of the Moon is Illuminated
Today
First Quarter
Sep 8
Full
Sep 15
Last Quarter
Sep 24
New
Oct 1
First Quarter

Today's Extremes

State Highs State Lows

Community

WunderPhotos

Upload Photos

1,749,829 photos uploaded!

Nearby

Air Quality

  Air Quality AQ Index Pollutant
Yesterday Good
PM2.5
Yesterday Good
OZONE
Current Good
OZONE
Current Good
PM2.5
Tuesday Good
PM2.5
Tuesday Good
OZONE
Wednesday Moderate
OZONE
Wednesday Moderate
PM2.5
Thursday Moderate
OZONE
Thursday Moderate
PM2.5
Friday Moderate
PM2.5
Friday Moderate
OZONE
Saturday Good
OZONE
Saturday Good
PM2.5
Sunday Good
OZONE
Sunday Good
PM2.5

Snow Depth

Station Depth Elevation
No new snow has been reported.

Earthquake Activity

City Distance Mag. Time & Date
No recent earthquake activity has been reported nearby.
Minimum magnitude displayed is 2.5.

Coastal Water Temperatures

Place Temperature
No Stations Reporting

Nearby Weather Stations